Terminal Aerodrome Forecast
Issued by NWS

Home | Current Version | Previous Version | Text Only | Print | Product List | Glossary On
Versions: 1 2 3 4 5 6 7 8 9 10 11 12 13 14 15
032
FTUS44 KLZK 202320
TAFPBF
TAF
KPBF 202320Z 2100/2124 20009KT P6SM BKN250
     FM210600 18008KT P6SM BKN250
     FM211200 17005KT P6SM VCFG BKN100 OVC250
      TEMPO 2112/2116 2SM -DZ OVC005
     FM211800 16007KT P6SM VCTS BKN050CB OVC100 PROB30 2118/2124 4SM
      -TSRA BR BKN040CB=

USA.gov is the U.S. government's official web portal to all federal, state and local government web resources and services.